Time;durP1;ratioP1;P1;durP2;ratioP2;P2;SDS_P1;SDS_P2;PMS_P1;PMS_P2;Temp;Humidity;BMP_temperature;BMP_pressure;BME280_temperature;BME280_humidity;BME280_pressure;Samples;Min_cycle;Max_cycle;Signal;HPM_P1;HPM_P2
2023/03/17 00:00:37;;;;;;;;;;;17.10;62.70;;;;;;5040815;28;946;-68
2023/03/17 00:03:02;;;;;;;;;;;17.10;62.70;;;;;;5037779;28;1358;-67
2023/03/17 00:05:32;;;;;;;;;;;17.10;62.70;;;;;;5039562;28;890;-68
2023/03/17 00:08:03;;;;;;;;;;;17.10;62.80;;;;;;5040412;28;866;-69
2023/03/17 00:10:28;;;;;;;;;;;17.10;62.80;;;;;;5048192;28;1097;-67
2023/03/17 00:12:54;;;;;;;;;;;17.10;62.80;;;;;;5042112;28;1377;-67
2023/03/17 00:15:20;;;;;;;;;;;17.10;62.80;;;;;;5042048;28;1902;-68
2023/03/17 00:17:46;;;;;;;;;;;17.00;62.70;;;;;;5046582;28;889;-68
2023/03/17 00:20:21;;;;;;;;;;;17.10;62.80;;;;;;5046608;28;834;-68
2023/03/17 00:22:47;;;;;;;;;;;17.00;62.80;;;;;;5041240;28;1206;-68
2023/03/17 00:25:33;;;;;;;;;;;17.00;62.70;;;;;;5041418;28;1621;-68
2023/03/17 00:27:59;;;;;;;;;;;17.00;62.70;;;;;;5039362;28;994;-67
2023/03/17 00:30:25;;;;;;;;;;;17.00;62.80;;;;;;5034710;28;1182;-67
2023/03/17 00:32:52;;;;;;;;;;;17.00;62.80;;;;;;5065116;28;1484;-67
2023/03/17 00:35:19;;;;;;;;;;;17.00;62.80;;;;;;5039747;28;1898;-67
2023/03/17 00:37:45;;;;;;;;;;;17.00;62.80;;;;;;5040952;28;1056;-68
2023/03/17 00:40:19;;;;;;;;;;;17.00;62.90;;;;;;5038043;28;922;-68
2023/03/17 00:42:45;;;;;;;;;;;17.00;62.80;;;;;;5039648;28;1717;-67
2023/03/17 00:45:10;;;;;;;;;;;17.00;62.80;;;;;;5037859;28;844;-68
2023/03/17 00:47:37;;;;;;;;;;;17.00;62.90;;;;;;5042258;28;922;-67
2023/03/17 00:50:03;;;;;;;;;;;17.00;62.90;;;;;;5026558;28;1234;-68
2023/03/17 00:52:29;;;;;;;;;;;17.00;62.80;;;;;;5045217;28;1299;-67
2023/03/17 00:54:55;;;;;;;;;;;17.00;62.80;;;;;;5038275;28;1967;-67
2023/03/17 00:57:20;;;;;;;;;;;17.00;62.80;;;;;;5036529;28;812;-67
2023/03/17 00:59:45;;;;;;;;;;;17.00;62.80;;;;;;5035275;28;962;-68
2023/03/17 01:02:11;;;;;;;;;;;17.00;62.80;;;;;;5039774;28;1339;-67
2023/03/17 01:04:37;;;;;;;;;;;17.00;62.80;;;;;;5038481;28;1154;-68
2023/03/17 01:07:03;;;;;;;;;;;17.00;62.80;;;;;;5041453;28;925;-68
2023/03/17 01:09:29;;;;;;;;;;;17.00;62.80;;;;;;5042569;28;850;-67
2023/03/17 01:11:55;;;;;;;;;;;17.00;62.80;;;;;;5039294;28;907;-67
2023/03/17 01:14:21;;;;;;;;;;;17.00;62.80;;;;;;5040714;28;1352;-67
2023/03/17 01:16:46;;;;;;;;;;;17.00;62.80;;;;;;5040558;28;881;-67
2023/03/17 01:19:12;;;;;;;;;;;17.00;62.80;;;;;;5041126;28;919;-67
2023/03/17 01:21:37;;;;;;;;;;;17.00;62.70;;;;;;5040242;28;867;-67
2023/03/17 01:24:03;;;;;;;;;;;17.00;62.70;;;;;;5040596;28;1283;-68
2023/03/17 01:26:29;;;;;;;;;;;17.00;62.80;;;;;;5038357;28;919;-68
2023/03/17 01:28:54;;;;;;;;;;;17.00;62.80;;;;;;5038941;28;1405;-68
2023/03/17 01:31:19;;;;;;;;;;;17.00;62.70;;;;;;5036134;28;800;-68
2023/03/17 01:33:46;;;;;;;;;;;17.00;62.70;;;;;;5038086;28;1371;-68
2023/03/17 01:36:11;;;;;;;;;;;17.00;62.80;;;;;;5038083;28;2044;-68
2023/03/17 01:38:37;;;;;;;;;;;17.00;62.70;;;;;;5039051;28;1489;-68
2023/03/17 01:41:02;;;;;;;;;;;17.00;62.70;;;;;;5039405;28;946;-68
2023/03/17 01:43:28;;;;;;;;;;;17.00;62.70;;;;;;5039865;28;1378;-68
2023/03/17 01:46:05;;;;;;;;;;;17.10;62.80;;;;;;5037576;28;926;-68
2023/03/17 01:48:33;;;;;;;;;;;17.00;62.80;;;;;;5037665;28;915;-68
2023/03/17 01:50:58;;;;;;;;;;;17.00;62.80;;;;;;5040530;28;1145;-68
2023/03/17 01:53:24;;;;;;;;;;;17.00;62.80;;;;;;5039913;28;1377;-68
2023/03/17 01:55:49;;;;;;;;;;;17.00;62.80;;;;;;5039893;28;1969;-68
2023/03/17 01:58:15;;;;;;;;;;;17.00;62.80;;;;;;5038703;28;849;-68
2023/03/17 02:00:41;;;;;;;;;;;17.00;62.80;;;;;;5038761;28;856;-68
2023/03/17 02:03:06;;;;;;;;;;;17.00;62.80;;;;;;5035996;28;1260;-68
2023/03/17 02:05:32;;;;;;;;;;;17.00;62.80;;;;;;5040526;28;884;-68
2023/03/17 02:07:57;;;;;;;;;;;17.00;62.80;;;;;;5038951;28;850;-68
2023/03/17 02:10:24;;;;;;;;;;;17.00;62.70;;;;;;5026282;28;1361;-69
2023/03/17 02:12:50;;;;;;;;;;;17.10;62.80;;;;;;5041143;28;1269;-68
2023/03/17 02:15:16;;;;;;;;;;;17.00;62.80;;;;;;5039180;28;1910;-68
2023/03/17 02:17:41;;;;;;;;;;;17.00;62.80;;;;;;5044271;28;856;-68
2023/03/17 02:20:27;;;;;;;;;;;17.00;62.80;;;;;;5038400;28;931;-68
2023/03/17 02:22:53;;;;;;;;;;;17.00;62.80;;;;;;5017315;28;1524;-67
2023/03/17 02:25:18;;;;;;;;;;;17.00;62.80;;;;;;5040613;28;836;-68
2023/03/17 02:27:45;;;;;;;;;;;17.00;62.80;;;;;;5045123;28;943;-67
2023/03/17 02:30:12;;;;;;;;;;;17.00;62.80;;;;;;5036456;28;1227;-67
2023/03/17 02:32:37;;;;;;;;;;;17.00;62.80;;;;;;5036581;28;1271;-69
2023/03/17 02:35:03;;;;;;;;;;;17.00;62.80;;;;;;5038047;28;1985;-67
2023/03/17 02:37:29;;;;;;;;;;;17.00;62.80;;;;;;5040079;28;1532;-68
2023/03/17 02:39:54;;;;;;;;;;;17.00;62.80;;;;;;5039918;28;915;-68
2023/03/17 02:42:20;;;;;;;;;;;17.00;62.80;;;;;;5037311;28;832;-68
2023/03/17 02:44:45;;;;;;;;;;;17.00;62.80;;;;;;5039170;28;1299;-68
2023/03/17 02:47:11;;;;;;;;;;;17.00;62.80;;;;;;5040274;28;821;-68
2023/03/17 02:49:37;;;;;;;;;;;17.00;62.80;;;;;;5038811;28;803;-68
2023/03/17 02:52:03;;;;;;;;;;;17.00;62.80;;;;;;5035969;28;803;-68
2023/03/17 02:54:28;;;;;;;;;;;17.00;62.90;;;;;;5037580;28;1975;-69
2023/03/17 02:56:54;;;;;;;;;;;17.00;62.80;;;;;;5037646;28;871;-68
2023/03/17 02:59:20;;;;;;;;;;;17.00;62.90;;;;;;5038307;28;828;-68
2023/03/17 03:01:47;;;;;;;;;;;17.00;62.80;;;;;;5040412;28;845;-68
2023/03/17 03:04:12;;;;;;;;;;;17.00;62.80;;;;;;5037774;28;1251;-68
2023/03/17 03:06:38;;;;;;;;;;;17.00;62.90;;;;;;5036370;28;1155;-68
2023/03/17 03:09:04;;;;;;;;;;;17.00;62.80;;;;;;5036500;28;813;-68
2023/03/17 03:11:30;;;;;;;;;;;17.00;62.80;;;;;;5036712;28;792;-68
2023/03/17 03:13:55;;;;;;;;;;;17.00;62.80;;;;;;5039020;28;1298;-68
2023/03/17 03:16:21;;;;;;;;;;;17.00;62.80;;;;;;5039525;28;1913;-68
2023/03/17 03:18:46;;;;;;;;;;;17.00;62.80;;;;;;5034596;28;1203;-68
2023/03/17 03:21:12;;;;;;;;;;;17.00;62.80;;;;;;5037822;28;768;-68
2023/03/17 03:23:38;;;;;;;;;;;17.00;62.80;;;;;;5041230;28;1252;-68
2023/03/17 03:26:03;;;;;;;;;;;17.00;62.80;;;;;;5043688;28;871;-68
2023/03/17 03:28:29;;;;;;;;;;;17.00;62.80;;;;;;5042491;28;823;-68
2023/03/17 03:30:54;;;;;;;;;;;17.00;62.80;;;;;;5039902;28;850;-68
2023/03/17 03:33:20;;;;;;;;;;;17.00;62.80;;;;;;5039461;28;1311;-68
2023/03/17 03:35:45;;;;;;;;;;;17.00;62.80;;;;;;5040394;28;1902;-68
2023/03/17 03:38:11;;;;;;;;;;;17.00;62.80;;;;;;5043995;28;1511;-68
2023/03/17 03:40:36;;;;;;;;;;;17.00;62.80;;;;;;5043920;28;847;-68
2023/03/17 03:43:02;;;;;;;;;;;17.00;62.80;;;;;;5039250;28;1292;-68
2023/03/17 03:45:28;;;;;;;;;;;17.00;62.80;;;;;;5041662;28;828;-68
2023/03/17 03:47:53;;;;;;;;;;;17.00;62.90;;;;;;5042206;28;918;-68
2023/03/17 03:50:19;;;;;;;;;;;17.00;62.80;;;;;;5038110;28;911;-68
2023/03/17 03:52:44;;;;;;;;;;;17.00;62.90;;;;;;5041727;28;1284;-68
2023/03/17 03:55:09;;;;;;;;;;;17.00;62.80;;;;;;5039905;28;1894;-68
2023/03/17 03:57:35;;;;;;;;;;;17.00;62.80;;;;;;5044071;28;897;-68
2023/03/17 04:00:00;;;;;;;;;;;17.00;62.80;;;;;;5039976;28;911;-68
2023/03/17 04:02:26;;;;;;;;;;;17.00;62.80;;;;;;5044269;28;1353;-68
2023/03/17 04:04:52;;;;;;;;;;;17.00;62.80;;;;;;5041232;28;1061;-68
2023/03/17 04:07:20;;;;;;;;;;;17.00;62.80;;;;;;5039622;28;880;-68
2023/03/17 04:09:46;;;;;;;;;;;17.00;62.80;;;;;;5040873;28;817;-68
2023/03/17 04:12:11;;;;;;;;;;;17.00;62.90;;;;;;5028698;28;1434;-68
2023/03/17 04:14:37;;;;;;;;;;;17.00;62.80;;;;;;5039200;28;1980;-68
2023/03/17 04:17:04;;;;;;;;;;;17.00;62.80;;;;;;5040518;28;802;-68
2023/03/17 04:19:29;;;;;;;;;;;17.00;62.80;;;;;;5042249;28;927;-68
2023/03/17 04:21:55;;;;;;;;;;;17.00;62.80;;;;;;5039334;28;892;-68
2023/03/17 04:24:20;;;;;;;;;;;17.00;62.80;;;;;;5040428;28;1200;-68
2023/03/17 04:26:46;;;;;;;;;;;17.00;62.90;;;;;;5038704;28;872;-67
2023/03/17 04:29:14;;;;;;;;;;;17.00;62.80;;;;;;5041359;28;1003;-68
2023/03/17 04:31:40;;;;;;;;;;;17.00;62.90;;;;;;5041690;28;916;-68
2023/03/17 04:34:05;;;;;;;;;;;17.00;62.80;;;;;;5037789;28;1263;-68
2023/03/17 04:36:31;;;;;;;;;;;17.00;62.80;;;;;;5038894;28;1903;-68
2023/03/17 04:38:57;;;;;;;;;;;17.00;62.80;;;;;;5042815;28;1307;-68
2023/03/17 04:41:22;;;;;;;;;;;17.00;62.90;;;;;;5039178;28;874;-68
2023/03/17 04:43:48;;;;;;;;;;;17.00;62.80;;;;;;5038948;28;1246;-68
2023/03/17 04:46:13;;;;;;;;;;;17.00;62.80;;;;;;5038089;28;825;-68
2023/03/17 04:48:39;;;;;;;;;;;17.00;62.90;;;;;;5036267;28;891;-68
2023/03/17 04:51:04;;;;;;;;;;;17.00;62.90;;;;;;5041031;28;848;-68
2023/03/17 04:53:30;;;;;;;;;;;17.00;62.80;;;;;;5038980;28;1280;-68
2023/03/17 04:55:56;;;;;;;;;;;17.00;62.80;;;;;;5040710;28;1957;-68
2023/03/17 04:58:21;;;;;;;;;;;17.00;62.80;;;;;;5039006;28;815;-68
2023/03/17 05:00:47;;;;;;;;;;;17.00;62.90;;;;;;5039966;28;812;-68
2023/03/17 05:03:12;;;;;;;;;;;17.00;62.80;;;;;;5036266;28;1349;-69
2023/03/17 05:05:38;;;;;;;;;;;17.00;62.90;;;;;;5039548;28;891;-68
2023/03/17 05:08:03;;;;;;;;;;;17.00;62.90;;;;;;5039910;28;994;-69
2023/03/17 05:10:29;;;;;;;;;;;17.00;62.80;;;;;;5038355;28;879;-68
2023/03/17 05:12:54;;;;;;;;;;;17.00;62.80;;;;;;5041733;28;1291;-69
2023/03/17 05:15:20;;;;;;;;;;;17.00;62.70;;;;;;5039149;28;1910;-68
2023/03/17 05:17:45;;;;;;;;;;;17.00;62.60;;;;;;5040609;28;824;-68
2023/03/17 05:20:11;;;;;;;;;;;17.10;62.60;;;;;;5039359;28;876;-68
2023/03/17 05:22:36;;;;;;;;;;;17.10;62.40;;;;;;5044434;28;1294;-69
2023/03/17 05:25:02;;;;;;;;;;;17.10;62.30;;;;;;5037468;28;1504;-68
2023/03/17 05:27:28;;;;;;;;;;;17.20;62.30;;;;;;5039449;28;842;-70
2023/03/17 05:29:53;;;;;;;;;;;17.20;62.10;;;;;;5037286;28;1080;-67
2023/03/17 05:32:19;;;;;;;;;;;17.20;62.00;;;;;;5043148;28;822;-67
2023/03/17 05:34:45;;;;;;;;;;;17.30;61.90;;;;;;5037766;28;1898;-68
2023/03/17 05:37:11;;;;;;;;;;;17.30;61.80;;;;;;5041563;28;1423;-69
2023/03/17 05:39:37;;;;;;;;;;;17.30;61.60;;;;;;5040388;28;1255;-69
2023/03/17 05:42:02;;;;;;;;;;;17.40;61.60;;;;;;5041011;28;870;-69
2023/03/17 05:44:28;;;;;;;;;;;17.40;61.50;;;;;;5039823;28;1340;-69
2023/03/17 05:46:54;;;;;;;;;;;17.40;61.40;;;;;;5039330;28;805;-68
2023/03/17 05:49:20;;;;;;;;;;;17.40;61.30;;;;;;5041034;28;892;-68
2023/03/17 05:51:45;;;;;;;;;;;17.50;61.30;;;;;;5039300;28;812;-69
2023/03/17 05:54:11;;;;;;;;;;;17.40;61.20;;;;;;5041258;28;1328;-68
2023/03/17 05:56:36;;;;;;;;;;;17.50;61.20;;;;;;5043492;28;1945;-68
2023/03/17 05:59:02;;;;;;;;;;;17.50;61.20;;;;;;5038864;28;895;-68
2023/03/17 06:01:28;;;;;;;;;;;17.50;61.10;;;;;;5045718;28;893;-68
2023/03/17 06:03:53;;;;;;;;;;;17.50;61.00;;;;;;5036829;28;1338;-68
2023/03/17 06:06:18;;;;;;;;;;;17.50;61.00;;;;;;5037259;28;890;-68
2023/03/17 06:08:44;;;;;;;;;;;17.60;61.00;;;;;;5038123;28;872;-68
2023/03/17 06:11:10;;;;;;;;;;;17.50;60.90;;;;;;5039513;28;800;-68
2023/03/17 06:13:35;;;;;;;;;;;17.60;61.00;;;;;;5038232;28;1355;-68
2023/03/17 06:16:01;;;;;;;;;;;17.60;61.00;;;;;;5041001;28;1914;-68
2023/03/17 06:18:27;;;;;;;;;;;17.50;60.90;;;;;;5036561;28;860;-68
2023/03/17 06:20:52;;;;;;;;;;;17.50;60.90;;;;;;5035980;28;1014;-68
2023/03/17 06:23:18;;;;;;;;;;;17.50;60.80;;;;;;5038928;28;1229;-68
2023/03/17 06:25:43;;;;;;;;;;;17.50;60.80;;;;;;5038647;28;815;-68
2023/03/17 06:28:09;;;;;;;;;;;17.60;60.90;;;;;;5038964;28;829;-68
2023/03/17 06:30:35;;;;;;;;;;;17.50;60.90;;;;;;5041830;28;1291;-68
2023/03/17 06:33:00;;;;;;;;;;;17.60;60.90;;;;;;5037789;28;1272;-68
2023/03/17 06:35:26;;;;;;;;;;;17.50;60.90;;;;;;5039042;28;1906;-69
2023/03/17 06:37:51;;;;;;;;;;;17.60;60.90;;;;;;5041853;28;1465;-69
2023/03/17 06:40:17;;;;;;;;;;;17.60;61.00;;;;;;5039662;28;907;-69
2023/03/17 06:42:42;;;;;;;;;;;17.50;60.90;;;;;;5039883;28;1347;-69
2023/03/17 06:45:08;;;;;;;;;;;17.50;60.90;;;;;;5041168;28;902;-69
2023/03/17 06:47:36;;;;;;;;;;;17.60;61.00;;;;;;5035991;28;1392;-69
2023/03/17 06:50:02;;;;;;;;;;;17.50;60.90;;;;;;5034239;28;2013;-70
2023/03/17 06:52:27;;;;;;;;;;;17.50;61.00;;;;;;5038854;28;1742;-69
2023/03/17 06:54:53;;;;;;;;;;;17.60;61.10;;;;;;5038142;28;1902;-67
2023/03/17 06:57:18;;;;;;;;;;;17.50;61.00;;;;;;5043505;28;1493;-67
2023/03/17 06:59:45;;;;;;;;;;;17.50;61.00;;;;;;5041135;28;887;-67
2023/03/17 07:02:10;;;;;;;;;;;17.50;61.00;;;;;;5041093;28;805;-67
2023/03/17 07:04:36;;;;;;;;;;;17.50;61.10;;;;;;5044454;28;1287;-66
2023/03/17 07:07:04;;;;;;;;;;;17.50;61.10;;;;;;5044238;28;878;-67
2023/03/17 07:09:29;;;;;;;;;;;17.50;61.10;;;;;;5045753;28;1001;-67
2023/03/17 07:11:54;;;;;;;;;;;17.50;61.90;;;;;;5042201;28;1050;-67
2023/03/17 07:14:20;;;;;;;;;;;17.50;61.20;;;;;;5041159;28;1285;-67
2023/03/17 07:16:47;;;;;;;;;;;17.40;61.10;;;;;;5040800;28;1914;-66
2023/03/17 07:19:12;;;;;;;;;;;17.40;61.20;;;;;;5041374;28;828;-68
2023/03/17 07:21:38;;;;;;;;;;;17.50;61.20;;;;;;5041732;28;796;-68
2023/03/17 07:24:03;;;;;;;;;;;17.40;61.20;;;;;;5043010;28;1379;-67
2023/03/17 07:26:29;;;;;;;;;;;17.40;61.20;;;;;;5041848;28;1236;-69
2023/03/17 07:28:54;;;;;;;;;;;17.40;61.30;;;;;;5026563;28;1151;-69
2023/03/17 07:31:20;;;;;;;;;;;17.40;61.30;;;;;;5046948;28;1552;-70
2023/03/17 07:33:45;;;;;;;;;;;17.40;61.30;;;;;;5040104;28;1288;-69
2023/03/17 07:36:12;;;;;;;;;;;17.40;61.30;;;;;;5042014;28;1918;-70
2023/03/17 07:38:37;;;;;;;;;;;17.40;61.40;;;;;;5042840;28;1122;-72
2023/03/17 07:41:03;;;;;;;;;;;17.40;61.40;;;;;;5048434;28;857;-71
2023/03/17 07:43:29;;;;;;;;;;;17.40;61.40;;;;;;5045887;28;1299;-70
2023/03/17 07:45:55;;;;;;;;;;;17.40;61.40;;;;;;5042490;28;1328;-71
2023/03/17 07:48:20;;;;;;;;;;;17.40;61.50;;;;;;5044418;28;1340;-68
2023/03/17 07:50:46;;;;;;;;;;;17.40;61.50;;;;;;5040050;28;920;-67
2023/03/17 07:53:11;;;;;;;;;;;17.40;61.60;;;;;;5040784;28;1209;-69
2023/03/17 07:55:37;;;;;;;;;;;17.40;61.50;;;;;;5041223;28;1898;-68
2023/03/17 07:58:03;;;;;;;;;;;17.30;61.50;;;;;;5040796;28;824;-68
2023/03/17 08:00:29;;;;;;;;;;;17.40;61.60;;;;;;5038999;28;923;-67
2023/03/17 08:02:55;;;;;;;;;;;17.40;61.60;;;;;;5040209;28;1327;-67
2023/03/17 08:05:20;;;;;;;;;;;17.40;61.60;;;;;;5040031;28;871;-67
2023/03/17 08:07:46;;;;;;;;;;;17.40;61.70;;;;;;5045498;28;947;-67
2023/03/17 08:10:12;;;;;;;;;;;17.30;61.60;;;;;;5036820;28;1688;-67
2023/03/17 08:12:37;;;;;;;;;;;17.30;61.60;;;;;;5044833;28;1315;-68
2023/03/17 08:15:03;;;;;;;;;;;17.30;61.60;;;;;;5024018;28;1971;-67
2023/03/17 08:17:28;;;;;;;;;;;17.30;61.60;;;;;;5039190;28;806;-67
2023/03/17 08:19:54;;;;;;;;;;;17.30;61.60;;;;;;5044594;28;1365;-69
2023/03/17 08:22:20;;;;;;;;;;;17.30;61.70;;;;;;5040134;28;833;-70
2023/03/17 08:24:45;;;;;;;;;;;17.30;61.70;;;;;;5040394;28;1260;-69
2023/03/17 08:27:11;;;;;;;;;;;17.30;61.70;;;;;;5039527;28;863;-68
2023/03/17 08:29:37;;;;;;;;;;;17.30;61.70;;;;;;5038266;28;796;-68
2023/03/17 08:32:02;;;;;;;;;;;17.30;61.70;;;;;;5041724;28;928;-68
2023/03/17 08:34:28;;;;;;;;;;;17.30;61.70;;;;;;5043960;28;1267;-68
2023/03/17 08:36:53;;;;;;;;;;;17.30;61.70;;;;;;5041681;28;1886;-68
2023/03/17 08:39:19;;;;;;;;;;;17.30;61.70;;;;;;5040234;28;1235;-69
2023/03/17 08:41:45;;;;;;;;;;;17.30;61.80;;;;;;5038119;28;911;-68
2023/03/17 08:44:11;;;;;;;;;;;17.30;61.80;;;;;;5041122;28;1240;-69
2023/03/17 08:46:37;;;;;;;;;;;17.30;61.70;;;;;;5036751;28;860;-69
2023/03/17 08:49:03;;;;;;;;;;;17.30;61.70;;;;;;5038019;28;845;-69
2023/03/17 08:51:29;;;;;;;;;;;17.30;61.70;;;;;;5039486;28;780;-69
2023/03/17 08:53:55;;;;;;;;;;;17.30;61.70;;;;;;5037521;28;1444;-69
2023/03/17 08:56:20;;;;;;;;;;;17.30;61.70;;;;;;5037889;28;1905;-69
2023/03/17 08:58:47;;;;;;;;;;;17.30;61.60;;;;;;5039730;28;912;-69
2023/03/17 09:01:14;;;;;;;;;;;17.30;61.60;;;;;;5039085;28;795;-69
2023/03/17 09:03:39;;;;;;;;;;;17.30;61.60;;;;;;5041345;28;1324;-68
2023/03/17 09:06:06;;;;;;;;;;;17.30;61.60;;;;;;5039366;28;796;-69
2023/03/17 09:08:33;;;;;;;;;;;17.30;61.60;;;;;;5040512;28;854;-67
2023/03/17 09:10:58;;;;;;;;;;;17.40;61.60;;;;;;5040643;28;840;-67
2023/03/17 09:13:24;;;;;;;;;;;17.40;61.60;;;;;;5040152;28;1236;-67
2023/03/17 09:15:49;;;;;;;;;;;17.40;61.60;;;;;;5039972;28;1972;-67
2023/03/17 09:18:15;;;;;;;;;;;17.40;61.50;;;;;;5037444;28;864;-70
2023/03/17 09:20:40;;;;;;;;;;;17.40;61.50;;;;;;5038456;28;793;-70
2023/03/17 09:23:09;;;;;;;;;;;17.40;61.50;;;;;;5038103;28;1223;-70
2023/03/17 09:25:35;;;;;;;;;;;17.40;61.40;;;;;;5041289;28;1387;-70
2023/03/17 09:28:00;;;;;;;;;;;17.40;62.10;;;;;;5039692;28;817;-70
2023/03/17 09:30:26;;;;;;;;;;;17.40;61.30;;;;;;5041924;28;809;-70
2023/03/17 09:32:52;;;;;;;;;;;17.50;61.40;;;;;;5041658;28;1229;-69
2023/03/17 09:35:18;;;;;;;;;;;17.50;61.30;;;;;;5036040;28;1890;-68
2023/03/17 09:37:43;;;;;;;;;;;17.40;61.20;;;;;;5039476;28;1560;-68
2023/03/17 09:40:11;;;;;;;;;;;17.50;61.20;;;;;;5044306;28;1428;-69
2023/03/17 09:42:39;;;;;;;;;;;17.40;61.20;;;;;;5033290;28;1387;-68
2023/03/17 09:45:34;;;;;;;;;;;17.50;61.20;;;;;;5040143;28;820;-69
2023/03/17 09:48:08;;;;;;;;;;;17.50;61.20;;;;;;5032010;28;1145;-69
2023/03/17 09:50:44;;;;;;;;;;;17.50;61.10;;;;;;5039141;28;801;-68
2023/03/17 09:53:25;;;;;;;;;;;17.50;61.10;;;;;;5037592;28;1296;-69
2023/03/17 09:55:52;;;;;;;;;;;17.50;61.10;;;;;;5041514;28;1906;-69
2023/03/17 09:58:19;;;;;;;;;;;17.50;61.10;;;;;;5041385;28;864;-69
2023/03/17 10:00:45;;;;;;;;;;;17.50;61.10;;;;;;5040714;28;841;-68
2023/03/17 10:03:11;;;;;;;;;;;17.50;61.10;;;;;;5037808;28;1246;-68
2023/03/17 10:05:37;;;;;;;;;;;17.50;61.90;;;;;;5036648;28;935;-69
2023/03/17 10:08:12;;;;;;;;;;;17.50;61.10;;;;;;5042098;28;1619;-69
2023/03/17 10:10:43;;;;;;;;;;;17.50;61.10;;;;;;5041714;28;858;-69
2023/03/17 10:13:18;;;;;;;;;;;17.50;61.10;;;;;;5041118;28;1259;-69
2023/03/17 10:15:43;;;;;;;;;;;17.50;61.10;;;;;;5037140;28;1969;-69
2023/03/17 10:18:10;;;;;;;;;;;17.50;61.10;;;;;;5038445;28;1316;-68
2023/03/17 10:20:36;;;;;;;;;;;17.50;61.10;;;;;;5037092;28;836;-68
2023/03/17 10:23:06;;;;;;;;;;;17.50;61.20;;;;;;5038552;28;1322;-70
2023/03/17 10:25:32;;;;;;;;;;;17.50;61.20;;;;;;5037708;28;863;-69
2023/03/17 10:27:59;;;;;;;;;;;17.50;61.20;;;;;;5039867;28;1576;-68
2023/03/17 10:30:25;;;;;;;;;;;17.50;61.20;;;;;;5042170;28;1501;-68
2023/03/17 10:32:51;;;;;;;;;;;17.50;61.20;;;;;;5040322;28;1345;-68
2023/03/17 10:35:16;;;;;;;;;;;17.50;61.30;;;;;;5041087;28;1902;-67
2023/03/17 10:37:42;;;;;;;;;;;17.40;61.20;;;;;;5038801;28;1442;-67
2023/03/17 10:40:19;;;;;;;;;;;17.40;61.20;;;;;;5041326;28;1958;-67
2023/03/17 10:42:51;;;;;;;;;;;17.40;61.30;;;;;;5037746;28;1464;-69
2023/03/17 10:45:37;;;;;;;;;;;17.50;61.40;;;;;;5038986;28;1282;-69
2023/03/17 10:48:03;;;;;;;;;;;17.40;61.40;;;;;;5027883;28;4657;-70
2023/03/17 10:50:33;;;;;;;;;;;17.40;61.40;;;;;;5040097;28;1498;-68
2023/03/17 10:53:08;;;;;;;;;;;17.40;61.50;;;;;;5037404;28;1299;-68
2023/03/17 10:55:36;;;;;;;;;;;17.40;61.50;;;;;;5044772;28;1914;-68
2023/03/17 10:58:02;;;;;;;;;;;17.40;61.60;;;;;;5037259;28;880;-68
2023/03/17 11:00:28;;;;;;;;;;;17.40;61.50;;;;;;5038852;28;829;-68
2023/03/17 11:02:57;;;;;;;;;;;17.40;61.60;;;;;;5038561;28;1320;-68
2023/03/17 11:05:23;;;;;;;;;;;17.40;61.60;;;;;;5036494;28;1407;-68
2023/03/17 11:07:49;;;;;;;;;;;17.40;61.60;;;;;;5037872;28;864;-68
2023/03/17 11:10:14;;;;;;;;;;;17.40;61.70;;;;;;5036358;28;904;-68
2023/03/17 11:12:40;;;;;;;;;;;17.40;61.70;;;;;;5038932;28;1343;-68
2023/03/17 11:15:06;;;;;;;;;;;17.40;61.70;;;;;;5037597;28;2003;-68
2023/03/17 11:17:53;;;;;;;;;;;17.30;61.60;;;;;;5037749;28;780;-67
2023/03/17 11:20:23;;;;;;;;;;;17.30;61.70;;;;;;5037881;28;848;-68
2023/03/17 11:22:58;;;;;;;;;;;17.30;61.80;;;;;;5039001;28;1264;-70
2023/03/17 11:25:24;;;;;;;;;;;17.30;61.80;;;;;;5036850;28;904;-68
2023/03/17 11:27:53;;;;;;;;;;;17.30;61.80;;;;;;5040340;28;843;-68
2023/03/17 11:30:18;;;;;;;;;;;17.30;61.80;;;;;;5036795;28;871;-68
2023/03/17 11:33:13;;;;;;;;;;;17.30;61.90;;;;;;5035638;28;1259;-68
2023/03/17 11:35:42;;;;;;;;;;;17.30;61.90;;;;;;5018817;28;1894;-68
2023/03/17 11:38:21;;;;;;;;;;;17.30;61.90;;;;;;5044333;28;1223;-68
2023/03/17 11:40:50;;;;;;;;;;;17.30;61.90;;;;;;5035624;28;908;-68
2023/03/17 11:43:22;;;;;;;;;;;17.30;61.90;;;;;;5038159;28;1254;-68
2023/03/17 11:45:56;;;;;;;;;;;17.30;61.90;;;;;;5038488;28;852;-68
2023/03/17 11:48:44;;;;;;;;;;;17.30;62.00;;;;;;5042040;28;896;-68
2023/03/17 11:51:27;;;;;;;;;;;17.20;62.00;;;;;;5044939;28;881;-68
2023/03/17 11:53:53;;;;;;;;;;;17.30;62.00;;;;;;5039351;28;1267;-68
2023/03/17 11:56:19;;;;;;;;;;;17.30;62.30;;;;;;5043416;28;1910;-67
2023/03/17 11:58:53;;;;;;;;;;;17.20;62.00;;;;;;5042319;28;824;-67
2023/03/17 12:01:20;;;;;;;;;;;17.20;62.10;;;;;;5037740;28;1810;-70
2023/03/17 12:03:48;;;;;;;;;;;17.20;62.10;;;;;;5037270;28;1917;-69
2023/03/17 12:06:24;;;;;;;;;;;17.20;62.10;;;;;;5039752;28;1258;-69
2023/03/17 12:08:58;;;;;;;;;;;17.30;62.20;;;;;;5040772;28;1250;-70
2023/03/17 12:11:26;;;;;;;;;;;17.20;62.20;;;;;;5040888;28;1191;-70
2023/03/17 12:14:03;;;;;;;;;;;17.20;62.20;;;;;;5041861;28;1281;-69
2023/03/17 12:16:30;;;;;;;;;;;17.20;62.20;;;;;;5045148;28;1976;-69
2023/03/17 12:19:02;;;;;;;;;;;17.20;62.20;;;;;;5046992;28;866;-70
2023/03/17 12:21:31;;;;;;;;;;;17.10;62.40;;;;;;5041507;28;875;-69
2023/03/17 12:24:03;;;;;;;;;;;17.20;62.30;;;;;;5041078;28;1296;-69
2023/03/17 12:26:58;;;;;;;;;;;17.20;62.30;;;;;;5045351;28;1813;-69
2023/03/17 12:29:25;;;;;;;;;;;17.20;62.30;;;;;;5036789;28;1077;-69
2023/03/17 12:32:01;;;;;;;;;;;17.20;62.30;;;;;;5041435;28;900;-67
2023/03/17 12:34:33;;;;;;;;;;;17.20;62.40;;;;;;5039727;28;1263;-68
2023/03/17 12:36:58;;;;;;;;;;;17.20;62.40;;;;;;5038642;28;1959;-71
2023/03/17 12:39:26;;;;;;;;;;;17.20;62.40;;;;;;5042443;28;1261;-69
2023/03/17 12:41:58;;;;;;;;;;;17.10;62.30;;;;;;5039923;28;824;-70
2023/03/17 12:44:41;;;;;;;;;;;17.10;62.30;;;;;;5039794;28;1384;-70
2023/03/17 12:47:10;;;;;;;;;;;17.10;62.40;;;;;;5042003;28;931;-69
2023/03/17 12:49:41;;;;;;;;;;;17.10;62.30;;;;;;5041923;28;829;-69
2023/03/17 12:52:11;;;;;;;;;;;17.10;62.40;;;;;;5040851;28;805;-69
2023/03/17 12:54:36;;;;;;;;;;;17.10;62.40;;;;;;5039545;28;1235;-70
2023/03/17 12:57:09;;;;;;;;;;;17.10;62.40;;;;;;5041423;28;1972;-70
2023/03/17 12:59:35;;;;;;;;;;;17.10;62.50;;;;;;5042413;28;892;-69
2023/03/17 13:02:12;;;;;;;;;;;17.10;62.50;;;;;;5042141;28;1161;-70
2023/03/17 13:04:38;;;;;;;;;;;17.10;62.50;;;;;;5039281;28;1417;-71
2023/03/17 13:07:09;;;;;;;;;;;17.10;62.50;;;;;;5041814;28;983;-71
2023/03/17 13:09:41;;;;;;;;;;;17.10;62.50;;;;;;5041765;28;837;-70
2023/03/17 13:12:13;;;;;;;;;;;17.10;62.60;;;;;;5041119;28;1170;-69
2023/03/17 13:14:41;;;;;;;;;;;17.10;62.60;;;;;;5040810;28;1373;-69
2023/03/17 13:17:15;;;;;;;;;;;17.10;62.60;;;;;;5040123;28;1928;-69
2023/03/17 13:20:00;;;;;;;;;;;17.10;62.60;;;;;;5039680;28;1116;-69
2023/03/17 13:22:33;;;;;;;;;;;17.10;62.70;;;;;;5038961;28;1312;-69
2023/03/17 13:25:11;;;;;;;;;;;17.10;62.70;;;;;;5055025;28;1525;-69
2023/03/17 13:27:36;;;;;;;;;;;17.10;62.70;;;;;;5039591;28;844;-69
2023/03/17 13:30:21;;;;;;;;;;;17.00;62.60;;;;;;5040261;28;848;-69
2023/03/17 13:33:05;;;;;;;;;;;17.00;62.70;;;;;;5040915;28;1546;-69
2023/03/17 13:35:39;;;;;;;;;;;17.00;62.70;;;;;;5039818;28;1964;-70
2023/03/17 13:38:25;;;;;;;;;;;17.00;62.70;;;;;;5039804;28;1404;-70
2023/03/17 13:40:57;;;;;;;;;;;17.00;62.70;;;;;;5038479;28;1100;-70
2023/03/17 13:43:41;;;;;;;;;;;17.00;62.70;;;;;;5038955;28;1303;-70
2023/03/17 13:46:25;;;;;;;;;;;17.00;62.70;;;;;;5040401;28;983;-70
2023/03/17 13:48:51;;;;;;;;;;;17.00;62.70;;;;;;5040230;28;863;-70
2023/03/17 13:51:23;;;;;;;;;;;17.00;62.80;;;;;;5023981;28;1171;-70
2023/03/17 13:53:52;;;;;;;;;;;17.00;62.70;;;;;;5042270;28;1291;-70
2023/03/17 13:56:24;;;;;;;;;;;17.00;62.80;;;;;;5036721;28;1906;-70
2023/03/17 13:58:56;;;;;;;;;;;17.00;62.80;;;;;;5040518;28;784;-70
2023/03/17 14:01:22;;;;;;;;;;;17.00;62.80;;;;;;5037876;28;824;-70
2023/03/17 14:03:48;;;;;;;;;;;17.00;62.80;;;;;;5038130;28;1358;-70
2023/03/17 14:06:14;;;;;;;;;;;17.00;62.80;;;;;;5041193;28;834;-69
2023/03/17 14:08:56;;;;;;;;;;;17.00;62.80;;;;;;5037908;28;2119;-69
2023/03/17 14:11:31;;;;;;;;;;;17.00;62.90;;;;;;5038435;28;2016;-69
2023/03/17 14:14:03;;;;;;;;;;;17.00;62.90;;;;;;5038031;28;1377;-68
2023/03/17 14:16:30;;;;;;;;;;;17.00;62.90;;;;;;5039734;28;1934;-69
2023/03/17 14:18:58;;;;;;;;;;;17.00;62.90;;;;;;5036881;28;848;-69
2023/03/17 14:21:24;;;;;;;;;;;17.00;62.90;;;;;;5039958;28;796;-69
2023/03/17 14:23:56;;;;;;;;;;;17.00;62.80;;;;;;5039471;28;1512;-69
2023/03/17 14:26:26;;;;;;;;;;;17.00;62.80;;;;;;5040852;28;938;-69
2023/03/17 14:28:51;;;;;;;;;;;17.00;62.70;;;;;;5038181;28;849;-68
2023/03/17 14:31:21;;;;;;;;;;;17.10;62.70;;;;;;5035427;28;840;-69
2023/03/17 14:33:47;;;;;;;;;;;17.10;62.60;;;;;;5039600;28;1339;-69
2023/03/17 14:36:12;;;;;;;;;;;17.10;62.50;;;;;;5039013;28;1976;-70
2023/03/17 14:38:38;;;;;;;;;;;17.10;62.40;;;;;;5036629;28;1500;-70